sensor_id;sensor_type;location;lat;lon;timestamp;pressure;altitude;pressure_sealevel;temperature;humidity
58243;BME280;50118;53.232;8.252;2023-02-12T00:01:09;103525.72;;;5.55;100.00
58243;BME280;50118;53.232;8.252;2023-02-12T00:03:35;103531.91;;;5.54;100.00
58243;BME280;50118;53.232;8.252;2023-02-12T00:06:01;103526.53;;;5.57;100.00
58243;BME280;50118;53.232;8.252;2023-02-12T00:08:27;103532.81;;;5.53;100.00
58243;BME280;50118;53.232;8.252;2023-02-12T00:10:52;103539.00;;;5.54;100.00
58243;BME280;50118;53.232;8.252;2023-02-12T00:13:17;103538.94;;;5.55;100.00
58243;BME280;50118;53.232;8.252;2023-02-12T00:15:43;103545.13;;;5.54;100.00
58243;BME280;50118;53.232;8.252;2023-02-12T00:18:10;103545.22;;;5.51;100.00
58243;BME280;50118;53.232;8.252;2023-02-12T00:20:37;103540.00;;;5.48;100.00
58243;BME280;50118;53.232;8.252;2023-02-12T00:23:03;103537.38;;;5.48;100.00
58243;BME280;50118;53.232;8.252;2023-02-12T00:25:29;103537.47;;;5.45;100.00
58243;BME280;50118;53.232;8.252;2023-02-12T00:27:54;103534.91;;;5.42;100.00
58243;BME280;50118;53.232;8.252;2023-02-12T00:30:20;103538.31;;;5.47;100.00
58243;BME280;50118;53.232;8.252;2023-02-12T00:32:45;103541.06;;;5.42;100.00
58243;BME280;50118;53.232;8.252;2023-02-12T00:35:11;103545.53;;;5.40;100.00
58243;BME280;50118;53.232;8.252;2023-02-12T00:37:36;103549.03;;;5.41;100.00
58243;BME280;50118;53.232;8.252;2023-02-12T00:40:02;103554.25;;;5.44;100.00
58243;BME280;50118;53.232;8.252;2023-02-12T00:42:28;103555.00;;;5.48;100.00
58243;BME280;50118;53.232;8.252;2023-02-12T00:44:53;103554.09;;;5.50;100.00
58243;BME280;50118;53.232;8.252;2023-02-12T00:47:18;103556.00;;;5.45;100.00
58243;BME280;50118;53.232;8.252;2023-02-12T00:49:44;103554.31;;;5.41;100.00
58243;BME280;50118;53.232;8.252;2023-02-12T00:52:09;103556.97;;;5.41;100.00
58243;BME280;50118;53.232;8.252;2023-02-12T00:54:35;103549.97;;;5.40;100.00
58243;BME280;50118;53.232;8.252;2023-02-12T00:57:00;103548.22;;;5.39;100.00
58243;BME280;50118;53.232;8.252;2023-02-12T00:59:25;103551.75;;;5.38;100.00
58243;BME280;50118;53.232;8.252;2023-02-12T01:01:53;103556.22;;;5.36;100.00
58243;BME280;50118;53.232;8.252;2023-02-12T01:04:19;103563.25;;;5.37;100.00
58243;BME280;50118;53.232;8.252;2023-02-12T01:06:44;103563.25;;;5.37;100.00
58243;BME280;50118;53.232;8.252;2023-02-12T01:09:10;103564.97;;;5.38;100.00
58243;BME280;50118;53.232;8.252;2023-02-12T01:11:36;103569.41;;;5.37;100.00
58243;BME280;50118;53.232;8.252;2023-02-12T01:14:02;103568.53;;;5.37;100.00
58243;BME280;50118;53.232;8.252;2023-02-12T01:16:28;103568.53;;;5.37;100.00
58243;BME280;50118;53.232;8.252;2023-02-12T01:18:54;103571.06;;;5.41;100.00
58243;BME280;50118;53.232;8.252;2023-02-12T01:21:24;103579.91;;;5.40;100.00
58243;BME280;50118;53.232;8.252;2023-02-12T01:23:50;103580.84;;;5.38;100.00
58243;BME280;50118;53.232;8.252;2023-02-12T01:26:17;103573.84;;;5.37;100.00
58243;BME280;50118;53.232;8.252;2023-02-12T01:28:44;103569.47;;;5.34;100.00
58243;BME280;50118;53.232;8.252;2023-02-12T01:31:14;103573.94;;;5.32;100.00
58243;BME280;50118;53.232;8.252;2023-02-12T01:33:41;103570.53;;;5.29;100.00
58243;BME280;50118;53.232;8.252;2023-02-12T01:36:07;103570.44;;;5.32;100.00
58243;BME280;50118;53.232;8.252;2023-02-12T01:38:33;103570.38;;;5.35;100.00
58243;BME280;50118;53.232;8.252;2023-02-12T01:41:06;103565.88;;;5.38;100.00
58243;BME280;50118;53.232;8.252;2023-02-12T01:43:36;103567.63;;;5.38;100.00
58243;BME280;50118;53.232;8.252;2023-02-12T01:46:02;103569.41;;;5.37;100.00
58243;BME280;50118;53.232;8.252;2023-02-12T01:48:35;103561.44;;;5.39;100.00
58243;BME280;50118;53.232;8.252;2023-02-12T01:51:02;103557.88;;;5.40;100.00
58243;BME280;50118;53.232;8.252;2023-02-12T01:53:43;103562.41;;;5.36;100.00
58243;BME280;50118;53.232;8.252;2023-02-12T01:56:11;103560.69;;;5.34;100.00
58243;BME280;50118;53.232;8.252;2023-02-12T01:58:40;103551.09;;;5.31;100.00
58243;BME280;50118;53.232;8.252;2023-02-12T02:01:10;103551.13;;;5.30;100.00
58243;BME280;50118;53.232;8.252;2023-02-12T02:03:38;103540.56;;;5.30;100.00
58243;BME280;50118;53.232;8.252;2023-02-12T02:06:13;103551.19;;;5.27;100.00
58243;BME280;50118;53.232;8.252;2023-02-12T02:08:40;103545.91;;;5.27;100.00
58243;BME280;50118;53.232;8.252;2023-02-12T02:11:06;103545.88;;;5.28;100.00
58243;BME280;50118;53.232;8.252;2023-02-12T02:13:52;103550.38;;;5.24;100.00
58243;BME280;50118;53.232;8.252;2023-02-12T02:16:38;103547.81;;;5.21;100.00
58243;BME280;50118;53.232;8.252;2023-02-12T02:22:01;103545.88;;;5.28;100.00
58243;BME280;50118;53.232;8.252;2023-02-12T02:29:44;103555.78;;;5.20;100.00
58243;BME280;50118;53.232;8.252;2023-02-12T02:32:23;103549.72;;;5.16;100.00
58243;BME280;50118;53.232;8.252;2023-02-12T02:37:59;103550.50;;;5.20;100.00
58243;BME280;50118;53.232;8.252;2023-02-12T02:40:23;103537.28;;;5.20;100.00
58243;BME280;50118;53.232;8.252;2023-02-12T02:42:56;103547.81;;;5.21;100.00
58243;BME280;50118;53.232;8.252;2023-02-12T02:45:33;103540.88;;;5.17;100.00
58243;BME280;50118;53.232;8.252;2023-02-12T02:48:05;103539.16;;;5.16;100.00
58243;BME280;50118;53.232;8.252;2023-02-12T02:50:34;103541.94;;;5.10;100.00
58243;BME280;50118;53.232;8.252;2023-02-12T02:53:12;103545.50;;;5.09;100.00
58243;BME280;50118;53.232;8.252;2023-02-12T02:55:50;103547.00;;;5.19;100.00
58243;BME280;50118;53.232;8.252;2023-02-12T02:58:23;103544.09;;;5.29;100.00
58243;BME280;50118;53.232;8.252;2023-02-12T03:00:56;103546.06;;;5.20;100.00
58243;BME280;50118;53.232;8.252;2023-02-12T03:03:27;103542.53;;;5.21;100.00
58243;BME280;50118;53.232;8.252;2023-02-12T03:05:59;103546.81;;;5.26;100.00
58243;BME280;50118;53.232;8.252;2023-02-12T03:08:35;103542.63;;;5.18;100.00
58243;BME280;50118;53.232;8.252;2023-02-12T03:11:20;103544.44;;;5.16;100.00
58243;BME280;50118;53.232;8.252;2023-02-12T03:16:31;103548.81;;;5.16;100.00
58243;BME280;50118;53.232;8.252;2023-02-12T03:19:06;103546.25;;;5.14;100.00
58243;BME280;50118;53.232;8.252;2023-02-12T03:21:47;103554.19;;;5.14;100.00
58243;BME280;50118;53.232;8.252;2023-02-12T03:24:25;103547.97;;;5.15;100.00
58243;BME280;50118;53.232;8.252;2023-02-12T03:27:06;103547.19;;;5.12;100.00
58243;BME280;50118;53.232;8.252;2023-02-12T03:29:33;103535.75;;;5.11;100.00
58243;BME280;50118;53.232;8.252;2023-02-12T03:37:12;103542.69;;;5.15;100.00
58243;BME280;50118;53.232;8.252;2023-02-12T03:42:53;103545.31;;;5.15;100.00
58243;BME280;50118;53.232;8.252;2023-02-12T03:45:27;103549.66;;;5.19;100.00
58243;BME280;50118;53.232;8.252;2023-02-12T03:48:04;103539.06;;;5.19;100.00
58243;BME280;50118;53.232;8.252;2023-02-12T03:50:44;103548.78;;;5.17;100.00
58243;BME280;50118;53.232;8.252;2023-02-12T03:53:11;103553.25;;;5.15;100.00
58243;BME280;50118;53.232;8.252;2023-02-12T03:55:41;103553.09;;;5.21;100.00
58243;BME280;50118;53.232;8.252;2023-02-12T03:58:09;103553.88;;;5.25;100.00
58243;BME280;50118;53.232;8.252;2023-02-12T04:00:37;103550.34;;;5.26;100.00
58243;BME280;50118;53.232;8.252;2023-02-12T04:03:04;103561.94;;;5.20;100.00
58243;BME280;50118;53.232;8.252;2023-02-12T04:05:30;103553.19;;;5.18;100.00
58243;BME280;50118;53.232;8.252;2023-02-12T04:07:57;103560.22;;;5.19;100.00
58243;BME280;50118;53.232;8.252;2023-02-12T04:13:29;103561.84;;;5.23;100.00
58243;BME280;50118;53.232;8.252;2023-02-12T04:18:43;103557.59;;;5.18;100.00
58243;BME280;50118;53.232;8.252;2023-02-12T04:26:39;103572.53;;;5.19;100.00
58243;BME280;50118;53.232;8.252;2023-02-12T04:29:27;103571.72;;;5.17;100.00
58243;BME280;50118;53.232;8.252;2023-02-12T04:32:03;103562.13;;;5.14;100.00
58243;BME280;50118;53.232;8.252;2023-02-12T04:34:48;103574.28;;;5.20;100.00
58243;BME280;50118;53.232;8.252;2023-02-12T04:39:59;103577.72;;;5.23;100.00
58243;BME280;50118;53.232;8.252;2023-02-12T04:42:27;103583.94;;;5.21;100.00
58243;BME280;50118;53.232;8.252;2023-02-12T04:44:52;103583.88;;;5.22;100.00
58243;BME280;50118;53.232;8.252;2023-02-12T04:47:18;103585.75;;;5.19;100.00
58243;BME280;50118;53.232;8.252;2023-02-12T04:49:43;103587.53;;;5.18;100.00
58243;BME280;50118;53.232;8.252;2023-02-12T04:52:09;103581.34;;;5.19;100.00
58243;BME280;50118;53.232;8.252;2023-02-12T04:54:34;103583.06;;;5.20;100.00
58243;BME280;50118;53.232;8.252;2023-02-12T04:57:00;103589.28;;;5.19;100.00
58243;BME280;50118;53.232;8.252;2023-02-12T04:59:25;103588.34;;;5.20;100.00
58243;BME280;50118;53.232;8.252;2023-02-12T05:01:51;103585.72;;;5.20;100.00
58243;BME280;50118;53.232;8.252;2023-02-12T05:04:17;103582.31;;;5.15;100.00
58243;BME280;50118;53.232;8.252;2023-02-12T05:06:44;103579.69;;;5.15;100.00
58243;BME280;50118;53.232;8.252;2023-02-12T05:09:16;103584.03;;;5.18;100.00
58243;BME280;50118;53.232;8.252;2023-02-12T05:11:42;103584.09;;;5.15;100.00
58243;BME280;50118;53.232;8.252;2023-02-12T05:14:07;103589.41;;;5.15;100.00
58243;BME280;50118;53.232;8.252;2023-02-12T05:16:33;103594.59;;;5.18;100.00
58243;BME280;50118;53.232;8.252;2023-02-12T05:18:58;103592.91;;;5.15;100.00
58243;BME280;50118;53.232;8.252;2023-02-12T05:21:23;103580.47;;;5.19;100.00
58243;BME280;50118;53.232;8.252;2023-02-12T05:23:49;103584.97;;;5.15;100.00
58243;BME280;50118;53.232;8.252;2023-02-12T05:26:17;103577.03;;;5.15;100.00
58243;BME280;50118;53.232;8.252;2023-02-12T05:28:43;103576.16;;;5.16;100.00
58243;BME280;50118;53.232;8.252;2023-02-12T05:31:10;103577.97;;;5.14;100.00
58243;BME280;50118;53.232;8.252;2023-02-12T05:33:37;103577.16;;;5.11;100.00
58243;BME280;50118;53.232;8.252;2023-02-12T05:36:06;103585.03;;;5.12;100.00
58243;BME280;50118;53.232;8.252;2023-02-12T05:38:33;103578.78;;;5.16;100.00
58243;BME280;50118;53.232;8.252;2023-02-12T05:41:19;103576.19;;;5.15;100.00
58243;BME280;50118;53.232;8.252;2023-02-12T05:43:45;103574.41;;;5.15;100.00
58243;BME280;50118;53.232;8.252;2023-02-12T05:46:11;103582.38;;;5.14;100.00
58243;BME280;50118;53.232;8.252;2023-02-12T05:48:38;103584.19;;;5.12;100.00
58243;BME280;50118;53.232;8.252;2023-02-12T05:51:07;103582.25;;;5.18;100.00
58243;BME280;50118;53.232;8.252;2023-02-12T05:53:33;103578.56;;;5.24;100.00
58243;BME280;50118;53.232;8.252;2023-02-12T05:56:20;103585.78;;;5.17;100.00
58243;BME280;50118;53.232;8.252;2023-02-12T05:58:51;103594.56;;;5.19;100.00
58243;BME280;50118;53.232;8.252;2023-02-12T06:01:20;103597.09;;;5.22;100.00
58243;BME280;50118;53.232;8.252;2023-02-12T06:03:46;103593.84;;;5.13;100.00
58243;BME280;50118;53.232;8.252;2023-02-12T06:06:12;103600.91;;;5.12;100.00
58243;BME280;50118;53.232;8.252;2023-02-12T06:08:38;103599.09;;;5.14;100.00
58243;BME280;50118;53.232;8.252;2023-02-12T06:11:07;103601.75;;;5.14;100.00
58243;BME280;50118;53.232;8.252;2023-02-12T06:13:33;103606.19;;;5.12;100.00
58243;BME280;50118;53.232;8.252;2023-02-12T06:15:59;103600.03;;;5.12;100.00
58243;BME280;50118;53.232;8.252;2023-02-12T06:18:26;103593.84;;;5.13;100.00
58243;BME280;50118;53.232;8.252;2023-02-12T06:20:51;103599.88;;;5.18;100.00
58243;BME280;50118;53.232;8.252;2023-02-12T06:23:21;103606.03;;;5.18;100.00
58243;BME280;50118;53.232;8.252;2023-02-12T06:25:47;103613.09;;;5.18;100.00
58243;BME280;50118;53.232;8.252;2023-02-12T06:28:13;103611.31;;;5.18;100.00
58243;BME280;50118;53.232;8.252;2023-02-12T06:30:39;103607.84;;;5.16;100.00
58243;BME280;50118;53.232;8.252;2023-02-12T06:33:04;103613.00;;;5.21;100.00
58243;BME280;50118;53.232;8.252;2023-02-12T06:35:30;103617.63;;;5.13;100.00
58243;BME280;50118;53.232;8.252;2023-02-12T06:37:55;103622.13;;;5.09;100.00
58243;BME280;50118;53.232;8.252;2023-02-12T06:40:21;103626.47;;;5.12;100.00
58243;BME280;50118;53.232;8.252;2023-02-12T06:42:46;103629.22;;;5.07;100.00
58243;BME280;50118;53.232;8.252;2023-02-12T06:45:11;103637.81;;;5.15;100.00
58243;BME280;50118;53.232;8.252;2023-02-12T06:47:37;103633.56;;;5.10;100.00
58243;BME280;50118;53.232;8.252;2023-02-12T06:50:02;103641.53;;;5.08;100.00
58243;BME280;50118;53.232;8.252;2023-02-12T06:52:28;103637.16;;;5.05;100.00
58243;BME280;50118;53.232;8.252;2023-02-12T06:54:54;103643.34;;;5.06;100.00
58243;BME280;50118;53.232;8.252;2023-02-12T06:57:19;103654.63;;;5.13;100.00
58243;BME280;50118;53.232;8.252;2023-02-12T06:59:45;103646.88;;;5.05;100.00
58243;BME280;50118;53.232;8.252;2023-02-12T07:02:10;103652.09;;;5.08;100.00
58243;BME280;50118;53.232;8.252;2023-02-12T07:04:39;103649.56;;;5.03;100.00
58243;BME280;50118;53.232;8.252;2023-02-12T07:07:04;103659.13;;;5.09;100.00
58243;BME280;50118;53.232;8.252;2023-02-12T07:09:29;103659.19;;;5.06;100.00
58243;BME280;50118;53.232;8.252;2023-02-12T07:11:57;103659.22;;;5.04;100.00
58243;BME280;50118;53.232;8.252;2023-02-12T07:14:23;103654.69;;;5.10;100.00
58243;BME280;50118;53.232;8.252;2023-02-12T07:16:49;103661.78;;;5.09;100.00
58243;BME280;50118;53.232;8.252;2023-02-12T07:19:14;103660.78;;;5.13;100.00
58243;BME280;50118;53.232;8.252;2023-02-12T07:21:41;103659.94;;;5.11;100.00
58243;BME280;50118;53.232;8.252;2023-02-12T07:24:10;103667.94;;;5.08;100.00
58243;BME280;50118;53.232;8.252;2023-02-12T07:26:39;103664.41;;;5.09;100.00
58243;BME280;50118;53.232;8.252;2023-02-12T07:29:04;103671.47;;;5.07;100.00
58243;BME280;50118;53.232;8.252;2023-02-12T07:31:30;103674.97;;;5.09;100.00
58243;BME280;50118;53.232;8.252;2023-02-12T07:33:57;103670.34;;;5.17;100.00
58243;BME280;50118;53.232;8.252;2023-02-12T07:36:25;103677.47;;;5.15;100.00
58243;BME280;50118;53.232;8.252;2023-02-12T07:38:50;103681.97;;;5.10;100.00
58243;BME280;50118;53.232;8.252;2023-02-12T07:41:27;103689.88;;;5.12;100.00
58243;BME280;50118;53.232;8.252;2023-02-12T07:43:55;103687.19;;;5.13;100.00
58243;BME280;50118;53.232;8.252;2023-02-12T07:46:27;103690.66;;;5.15;100.00
58243;BME280;50118;53.232;8.252;2023-02-12T07:49:00;103687.13;;;5.16;100.00
58243;BME280;50118;53.232;8.252;2023-02-12T07:51:27;103697.63;;;5.19;100.00
58243;BME280;50118;53.232;8.252;2023-02-12T07:53:53;103695.81;;;5.21;100.00
58243;BME280;50118;53.232;8.252;2023-02-12T07:56:21;103698.50;;;5.20;100.00
58243;BME280;50118;53.232;8.252;2023-02-12T07:58:48;103698.28;;;5.28;100.00
58243;BME280;50118;53.232;8.252;2023-02-12T08:01:18;103703.56;;;5.28;100.00
58243;BME280;50118;53.232;8.252;2023-02-12T08:03:45;103699.91;;;5.35;100.00
58243;BME280;50118;53.232;8.252;2023-02-12T08:06:20;103707.91;;;5.32;100.00
58243;BME280;50118;53.232;8.252;2023-02-12T08:08:49;103703.41;;;5.35;100.00
58243;BME280;50118;53.232;8.252;2023-02-12T08:11:14;103706.00;;;5.37;100.00
58243;BME280;50118;53.232;8.252;2023-02-12T08:13:40;103707.69;;;5.39;100.00
58243;BME280;50118;53.232;8.252;2023-02-12T08:16:08;103710.47;;;5.35;100.00
58243;BME280;50118;53.232;8.252;2023-02-12T08:18:34;103714.75;;;5.39;100.00
58243;BME280;50118;53.232;8.252;2023-02-12T08:21:04;103705.81;;;5.43;100.00
58243;BME280;50118;53.232;8.252;2023-02-12T08:23:31;103704.03;;;5.45;100.00
58243;BME280;50118;53.232;8.252;2023-02-12T08:26:10;103712.53;;;5.56;100.00
58243;BME280;50118;53.232;8.252;2023-02-12T08:28:37;103704.78;;;5.50;100.00
58243;BME280;50118;53.232;8.252;2023-02-12T08:31:06;103712.63;;;5.53;100.00
58243;BME280;50118;53.232;8.252;2023-02-12T08:33:31;103707.25;;;5.56;100.00
58243;BME280;50118;53.232;8.252;2023-02-12T08:36:07;103713.31;;;5.60;100.00
58243;BME280;50118;53.232;8.252;2023-02-12T08:38:34;103715.72;;;5.71;100.00
58243;BME280;50118;53.232;8.252;2023-02-12T08:41:11;103712.06;;;5.75;100.00
58243;BME280;50118;53.232;8.252;2023-02-12T08:43:39;103723.59;;;5.72;100.00
58243;BME280;50118;53.232;8.252;2023-02-12T08:46:11;103712.84;;;5.78;100.00
58243;BME280;50118;53.232;8.252;2023-02-12T08:48:37;103722.59;;;5.76;100.00
58243;BME280;50118;53.232;8.252;2023-02-12T08:51:10;103719.03;;;5.79;100.00
58243;BME280;50118;53.232;8.252;2023-02-12T08:53:37;103717.00;;;5.87;100.00
58243;BME280;50118;53.232;8.252;2023-02-12T08:56:04;103721.34;;;5.91;100.00
58243;BME280;50118;53.232;8.252;2023-02-12T08:58:30;103729.34;;;5.88;100.00
58243;BME280;50118;53.232;8.252;2023-02-12T09:00:55;103724.50;;;6.06;100.00
58243;BME280;50118;53.232;8.252;2023-02-12T09:03:21;103731.75;;;5.97;100.00
58243;BME280;50118;53.232;8.252;2023-02-12T09:05:47;103727.41;;;5.96;100.00
58243;BME280;50118;53.232;8.252;2023-02-12T09:08:12;103732.66;;;5.98;100.00
58243;BME280;50118;53.232;8.252;2023-02-12T09:10:41;103733.97;;;6.13;100.00
58243;BME280;50118;53.232;8.252;2023-02-12T09:13:08;103735.06;;;6.06;100.00
58243;BME280;50118;53.232;8.252;2023-02-12T09:15:40;103734.56;;;5.91;100.00
58243;BME280;50118;53.232;8.252;2023-02-12T09:18:08;103741.44;;;5.98;100.00
58243;BME280;50118;53.232;8.252;2023-02-12T09:20:36;103736.09;;;6.02;100.00
58243;BME280;50118;53.232;8.252;2023-02-12T09:23:03;103735.81;;;6.11;100.00
58243;BME280;50118;53.232;8.252;2023-02-12T09:25:28;103747.63;;;6.30;100.00
58243;BME280;50118;53.232;8.252;2023-02-12T09:27:54;103743.56;;;6.19;100.00
58243;BME280;50118;53.232;8.252;2023-02-12T09:30:21;103746.16;;;6.20;100.00
58243;BME280;50118;53.232;8.252;2023-02-12T09:32:47;103740.88;;;6.20;100.00
58243;BME280;50118;53.232;8.252;2023-02-12T09:35:12;103745.00;;;5.97;100.00
58243;BME280;50118;53.232;8.252;2023-02-12T09:37:38;103742.84;;;6.12;100.00
58243;BME280;50118;53.232;8.252;2023-02-12T09:40:17;103748.25;;;6.07;100.00
58243;BME280;50118;53.232;8.252;2023-02-12T09:45:41;103748.16;;;6.12;100.00
58243;BME280;50118;53.232;8.252;2023-02-12T09:50:47;103758.09;;;6.02;100.00
58243;BME280;50118;53.232;8.252;2023-02-12T09:53:18;103758.56;;;6.18;100.00
58243;BME280;50118;53.232;8.252;2023-02-12T09:55:45;103757.50;;;6.25;100.00
58243;BME280;50118;53.232;8.252;2023-02-12T09:58:37;103760.72;;;6.35;100.00
58243;BME280;50118;53.232;8.252;2023-02-12T10:01:02;103759.75;;;6.39;100.00
58243;BME280;50118;53.232;8.252;2023-02-12T10:03:34;103766.47;;;6.51;100.00
58243;BME280;50118;53.232;8.252;2023-02-12T10:06:12;103766.47;;;6.51;100.00
58243;BME280;50118;53.232;8.252;2023-02-12T10:11:59;103770.22;;;6.44;100.00
58243;BME280;50118;53.232;8.252;2023-02-12T10:17:40;103776.47;;;6.40;100.00
58243;BME280;50118;53.232;8.252;2023-02-12T10:28:16;103771.84;;;6.48;100.00
58243;BME280;50118;53.232;8.252;2023-02-12T10:30:48;103789.81;;;6.36;100.00
58243;BME280;50118;53.232;8.252;2023-02-12T10:33:27;103783.13;;;6.23;100.00
58243;BME280;50118;53.232;8.252;2023-02-12T10:36:31;103774.53;;;6.46;100.00
58243;BME280;50118;53.232;8.252;2023-02-12T10:39:06;103791.47;;;6.41;100.00
58243;BME280;50118;53.232;8.252;2023-02-12T10:44:23;103784.34;;;6.43;100.00
58243;BME280;50118;53.232;8.252;2023-02-12T10:46:49;103791.22;;;6.48;100.00
58243;BME280;50118;53.232;8.252;2023-02-12T10:49:17;103785.00;;;6.51;100.00
58243;BME280;50118;53.232;8.252;2023-02-12T10:54:45;103776.69;;;6.63;100.00
58243;BME280;50118;53.232;8.252;2023-02-12T10:57:29;103778.44;;;6.64;100.00
58243;BME280;50118;53.232;8.252;2023-02-12T11:00:14;103772.84;;;6.73;100.00
58243;BME280;50118;53.232;8.252;2023-02-12T11:03:02;103771.47;;;6.90;100.00
58243;BME280;50118;53.232;8.252;2023-02-12T11:05:30;103767.97;;;7.18;100.00
58243;BME280;50118;53.232;8.252;2023-02-12T11:07:56;103764.69;;;7.09;100.00
58243;BME280;50118;53.232;8.252;2023-02-12T11:10:29;103766.59;;;7.33;100.00
58243;BME280;50118;53.232;8.252;2023-02-12T11:12:57;103762.50;;;7.49;100.00
58243;BME280;50118;53.232;8.252;2023-02-12T11:15:24;103759.16;;;7.44;100.00
58243;BME280;50118;53.232;8.252;2023-02-12T11:18:23;103763.31;;;7.53;100.00
58243;BME280;50118;53.232;8.252;2023-02-12T11:21:08;103766.09;;;7.48;100.00
58243;BME280;50118;53.232;8.252;2023-02-12T11:23:41;103765.34;;;7.44;100.00
58243;BME280;50118;53.232;8.252;2023-02-12T11:26:24;103756.34;;;7.48;100.00
58243;BME280;50118;53.232;8.252;2023-02-12T11:29:00;103757.16;;;7.51;100.00
58243;BME280;50118;53.232;8.252;2023-02-12T11:31:33;103754.69;;;7.71;100.00
58243;BME280;50118;53.232;8.252;2023-02-12T11:36:46;103762.94;;;7.37;100.00
58243;BME280;50118;53.232;8.252;2023-02-12T11:39:30;103753.59;;;7.25;100.00
58243;BME280;50118;53.232;8.252;2023-02-12T11:42:02;103761.34;;;7.31;100.00
58243;BME280;50118;53.232;8.252;2023-02-12T11:44:33;103759.31;;;7.39;100.00
58243;BME280;50118;53.232;8.252;2023-02-12T11:47:01;103754.84;;;7.41;100.00
58243;BME280;50118;53.232;8.252;2023-02-12T11:49:36;103752.84;;;7.48;100.00
58243;BME280;50118;53.232;8.252;2023-02-12T11:52:03;103743.66;;;7.32;100.00
58243;BME280;50118;53.232;8.252;2023-02-12T11:54:35;103742.38;;;7.43;100.00
58243;BME280;50118;53.232;8.252;2023-02-12T11:57:03;103745.97;;;7.42;100.00
58243;BME280;50118;53.232;8.252;2023-02-12T12:02:04;103743.06;;;7.75;100.00
58243;BME280;50118;53.232;8.252;2023-02-12T12:04:32;103747.34;;;7.79;100.00
58243;BME280;50118;53.232;8.252;2023-02-12T12:07:05;103745.69;;;7.77;100.00
58243;BME280;50118;53.232;8.252;2023-02-12T12:09:47;103742.91;;;7.55;100.00
58243;BME280;50118;53.232;8.252;2023-02-12T12:15:01;103739.53;;;7.23;100.00
58243;BME280;50118;53.232;8.252;2023-02-12T12:17:55;103734.72;;;7.07;100.00
58243;BME280;50118;53.232;8.252;2023-02-12T12:20:53;103737.59;;;7.00;100.00
58243;BME280;50118;53.232;8.252;2023-02-12T12:23:34;103736.25;;;7.15;100.00
58243;BME280;50118;53.232;8.252;2023-02-12T12:26:09;103732.38;;;6.98;100.00
58243;BME280;50118;53.232;8.252;2023-02-12T12:28:51;103734.63;;;7.10;100.00
58243;BME280;50118;53.232;8.252;2023-02-12T12:31:24;103730.97;;;7.13;100.00
58243;BME280;50118;53.232;8.252;2023-02-12T12:34:04;103727.97;;;7.25;100.00
58243;BME280;50118;53.232;8.252;2023-02-12T12:47:22;103722.56;;;7.27;100.00
58243;BME280;50118;53.232;8.252;2023-02-12T12:50:04;103719.13;;;7.25;100.00
58243;BME280;50118;53.232;8.252;2023-02-12T12:58:04;103714.94;;;7.44;100.00
58243;BME280;50118;53.232;8.252;2023-02-12T13:00:50;103707.69;;;7.23;100.00
58243;BME280;50118;53.232;8.252;2023-02-12T13:06:42;103701.97;;;7.35;100.00
58243;BME280;50118;53.232;8.252;2023-02-12T13:17:45;103698.22;;;7.42;100.00
58243;BME280;50118;53.232;8.252;2023-02-12T13:27:46;103698.13;;;7.96;100.00
58243;BME280;50118;53.232;8.252;2023-02-12T13:32:41;103687.28;;;8.02;100.00
58243;BME280;50118;53.232;8.252;2023-02-12T13:35:17;103681.03;;;8.03;100.00
58243;BME280;50118;53.232;8.252;2023-02-12T13:37:50;103685.53;;;8.01;100.00
58243;BME280;50118;53.232;8.252;2023-02-12T13:40:27;103684.34;;;7.84;100.00
58243;BME280;50118;53.232;8.252;2023-02-12T13:43:27;103683.47;;;8.09;100.00
58243;BME280;50118;53.232;8.252;2023-02-12T13:46:07;103685.59;;;7.99;100.00
58243;BME280;50118;53.232;8.252;2023-02-12T13:58:58;103678.38;;;8.03;100.00
58243;BME280;50118;53.232;8.252;2023-02-12T14:01:44;103687.03;;;8.08;100.00
58243;BME280;50118;53.232;8.252;2023-02-12T14:04:21;103689.84;;;8.03;100.00
58243;BME280;50118;53.232;8.252;2023-02-12T14:09:46;103679.84;;;7.86;100.00
58243;BME280;50118;53.232;8.252;2023-02-12T14:14:56;103680.91;;;7.82;100.00
58243;BME280;50118;53.232;8.252;2023-02-12T14:37:58;103687.91;;;7.85;100.00
58243;BME280;50118;53.232;8.252;2023-02-12T14:40:35;103684.25;;;7.88;100.00
58243;BME280;50118;53.232;8.252;2023-02-12T14:43:33;103682.84;;;8.02;100.00
58243;BME280;50118;53.232;8.252;2023-02-12T14:48:58;103685.75;;;7.95;100.00
58243;BME280;50118;53.232;8.252;2023-02-12T14:51:45;103692.06;;;7.92;100.00
58243;BME280;50118;53.232;8.252;2023-02-12T14:54:36;103688.81;;;7.84;100.00
58243;BME280;50118;53.232;8.252;2023-02-12T14:57:21;103686.09;;;7.85;100.00
58243;BME280;50118;53.232;8.252;2023-02-12T14:59:49;103696.72;;;7.85;100.00
58243;BME280;50118;53.232;8.252;2023-02-12T15:02:25;103688.25;;;7.74;100.00
58243;BME280;50118;53.232;8.252;2023-02-12T15:04:55;103686.53;;;7.73;100.00
58243;BME280;50118;53.232;8.252;2023-02-12T15:07:30;103689.06;;;7.76;100.00
58243;BME280;50118;53.232;8.252;2023-02-12T15:10:00;103695.22;;;7.78;100.00
58243;BME280;50118;53.232;8.252;2023-02-12T15:12:40;103691.50;;;7.82;100.00
58243;BME280;50118;53.232;8.252;2023-02-12T15:15:15;103684.03;;;7.69;100.00
58243;BME280;50118;53.232;8.252;2023-02-12T15:17:57;103683.28;;;7.65;100.00
58243;BME280;50118;53.232;8.252;2023-02-12T15:20:47;103688.50;;;7.68;100.00
58243;BME280;50118;53.232;8.252;2023-02-12T15:23:31;103691.25;;;7.65;100.00
58243;BME280;50118;53.232;8.252;2023-02-12T15:25:58;103684.53;;;7.55;100.00
58243;BME280;50118;53.232;8.252;2023-02-12T15:28:29;103683.94;;;7.46;100.00
58243;BME280;50118;53.232;8.252;2023-02-12T15:30:58;103683.81;;;7.50;100.00
58243;BME280;50118;53.232;8.252;2023-02-12T15:33:30;103680.25;;;7.51;100.00
58243;BME280;50118;53.232;8.252;2023-02-12T15:35:57;103675.16;;;7.44;100.00